sensor_id;sensor_type;location;lat;lon;timestamp;P1;durP1;ratioP1;P2;durP2;ratioP2
39918;SDS011;25589;51.552;13.424;2023-10-31T00:01:16;5.22;;;2.95;;
39918;SDS011;25589;51.552;13.424;2023-10-31T00:03:42;5.20;;;3.15;;
39918;SDS011;25589;51.552;13.424;2023-10-31T00:06:09;5.70;;;3.35;;
39918;SDS011;25589;51.552;13.424;2023-10-31T00:08:35;6.45;;;3.50;;
39918;SDS011;25589;51.552;13.424;2023-10-31T00:11:00;5.85;;;3.97;;
39918;SDS011;25589;51.552;13.424;2023-10-31T00:13:26;6.90;;;3.60;;
39918;SDS011;25589;51.552;13.424;2023-10-31T00:15:51;7.20;;;4.07;;
39918;SDS011;25589;51.552;13.424;2023-10-31T00:18:17;8.50;;;4.10;;
39918;SDS011;25589;51.552;13.424;2023-10-31T00:20:42;9.30;;;3.78;;
39918;SDS011;25589;51.552;13.424;2023-10-31T00:23:08;7.13;;;3.65;;
39918;SDS011;25589;51.552;13.424;2023-10-31T00:25:34;9.88;;;4.72;;
39918;SDS011;25589;51.552;13.424;2023-10-31T00:27:59;9.23;;;3.90;;
39918;SDS011;25589;51.552;13.424;2023-10-31T00:30:25;7.18;;;4.25;;
39918;SDS011;25589;51.552;13.424;2023-10-31T00:32:50;9.35;;;4.25;;
39918;SDS011;25589;51.552;13.424;2023-10-31T00:35:16;7.60;;;3.88;;
39918;SDS011;25589;51.552;13.424;2023-10-31T00:37:41;6.95;;;3.92;;
39918;SDS011;25589;51.552;13.424;2023-10-31T00:40:07;6.55;;;3.88;;
39918;SDS011;25589;51.552;13.424;2023-10-31T00:42:36;4.65;;;3.40;;
39918;SDS011;25589;51.552;13.424;2023-10-31T00:45:03;5.32;;;3.53;;
39918;SDS011;25589;51.552;13.424;2023-10-31T00:47:28;6.05;;;4.05;;
39918;SDS011;25589;51.552;13.424;2023-10-31T00:49:54;6.43;;;4.15;;
39918;SDS011;25589;51.552;13.424;2023-10-31T00:52:19;11.68;;;4.65;;
39918;SDS011;25589;51.552;13.424;2023-10-31T00:54:45;8.45;;;4.85;;
39918;SDS011;25589;51.552;13.424;2023-10-31T00:57:10;6.60;;;4.55;;
39918;SDS011;25589;51.552;13.424;2023-10-31T00:59:36;6.20;;;4.03;;
39918;SDS011;25589;51.552;13.424;2023-10-31T01:02:02;9.43;;;4.68;;
39918;SDS011;25589;51.552;13.424;2023-10-31T01:04:29;8.85;;;4.10;;
39918;SDS011;25589;51.552;13.424;2023-10-31T01:06:54;7.10;;;4.20;;
39918;SDS011;25589;51.552;13.424;2023-10-31T01:09:20;11.90;;;4.95;;
39918;SDS011;25589;51.552;13.424;2023-10-31T01:11:45;8.60;;;5.22;;
39918;SDS011;25589;51.552;13.424;2023-10-31T01:14:11;7.40;;;4.45;;
39918;SDS011;25589;51.552;13.424;2023-10-31T01:16:36;8.73;;;4.90;;
39918;SDS011;25589;51.552;13.424;2023-10-31T01:19:02;6.38;;;4.63;;
39918;SDS011;25589;51.552;13.424;2023-10-31T01:21:28;11.50;;;4.68;;
39918;SDS011;25589;51.552;13.424;2023-10-31T01:23:54;8.68;;;5.78;;
39918;SDS011;25589;51.552;13.424;2023-10-31T01:26:19;12.75;;;5.47;;
39918;SDS011;25589;51.552;13.424;2023-10-31T01:28:45;9.50;;;5.07;;
39918;SDS011;25589;51.552;13.424;2023-10-31T01:31:10;7.18;;;5.30;;
39918;SDS011;25589;51.552;13.424;2023-10-31T01:33:36;7.32;;;5.22;;
39918;SDS011;25589;51.552;13.424;2023-10-31T01:36:01;8.02;;;5.60;;
39918;SDS011;25589;51.552;13.424;2023-10-31T01:38:27;7.80;;;5.35;;
39918;SDS011;25589;51.552;13.424;2023-10-31T01:40:53;10.15;;;6.40;;
39918;SDS011;25589;51.552;13.424;2023-10-31T01:43:32;7.03;;;5.88;;
39918;SDS011;25589;51.552;13.424;2023-10-31T01:45:58;9.25;;;5.50;;
39918;SDS011;25589;51.552;13.424;2023-10-31T01:48:24;8.32;;;5.47;;
39918;SDS011;25589;51.552;13.424;2023-10-31T01:50:52;7.78;;;5.53;;
39918;SDS011;25589;51.552;13.424;2023-10-31T01:53:18;6.65;;;5.15;;
39918;SDS011;25589;51.552;13.424;2023-10-31T01:55:44;7.40;;;5.93;;
39918;SDS011;25589;51.552;13.424;2023-10-31T01:58:11;7.07;;;5.68;;
39918;SDS011;25589;51.552;13.424;2023-10-31T02:00:39;8.07;;;6.28;;
39918;SDS011;25589;51.552;13.424;2023-10-31T02:03:07;8.80;;;6.13;;
39918;SDS011;25589;51.552;13.424;2023-10-31T02:05:33;9.32;;;6.93;;
39918;SDS011;25589;51.552;13.424;2023-10-31T02:07:59;11.57;;;7.15;;
39918;SDS011;25589;51.552;13.424;2023-10-31T02:10:28;10.93;;;7.72;;
39918;SDS011;25589;51.552;13.424;2023-10-31T02:12:53;11.07;;;7.22;;
39918;SDS011;25589;51.552;13.424;2023-10-31T02:15:19;9.50;;;7.35;;
39918;SDS011;25589;51.552;13.424;2023-10-31T02:17:48;12.05;;;8.70;;
39918;SDS011;25589;51.552;13.424;2023-10-31T02:20:14;12.52;;;9.00;;
39918;SDS011;25589;51.552;13.424;2023-10-31T02:22:39;12.75;;;9.10;;
39918;SDS011;25589;51.552;13.424;2023-10-31T02:25:17;17.15;;;9.70;;
39918;SDS011;25589;51.552;13.424;2023-10-31T02:27:43;13.02;;;9.68;;
39918;SDS011;25589;51.552;13.424;2023-10-31T02:30:09;14.43;;;9.57;;
39918;SDS011;25589;51.552;13.424;2023-10-31T02:32:35;13.52;;;9.95;;
39918;SDS011;25589;51.552;13.424;2023-10-31T02:35:01;14.18;;;9.57;;
39918;SDS011;25589;51.552;13.424;2023-10-31T02:37:26;15.85;;;10.40;;
39918;SDS011;25589;51.552;13.424;2023-10-31T02:39:52;16.00;;;11.05;;
39918;SDS011;25589;51.552;13.424;2023-10-31T02:42:17;13.82;;;10.20;;
39918;SDS011;25589;51.552;13.424;2023-10-31T02:44:43;14.48;;;11.02;;
39918;SDS011;25589;51.552;13.424;2023-10-31T02:47:09;16.92;;;10.77;;
39918;SDS011;25589;51.552;13.424;2023-10-31T02:49:35;15.13;;;10.25;;
39918;SDS011;25589;51.552;13.424;2023-10-31T02:52:01;14.90;;;10.30;;
39918;SDS011;25589;51.552;13.424;2023-10-31T02:54:26;15.73;;;10.02;;
39918;SDS011;25589;51.552;13.424;2023-10-31T02:56:52;13.63;;;9.93;;
39918;SDS011;25589;51.552;13.424;2023-10-31T02:59:17;12.75;;;9.27;;
39918;SDS011;25589;51.552;13.424;2023-10-31T03:01:43;14.13;;;9.23;;
39918;SDS011;25589;51.552;13.424;2023-10-31T03:04:09;13.05;;;9.38;;
39918;SDS011;25589;51.552;13.424;2023-10-31T03:06:34;16.42;;;9.82;;
39918;SDS011;25589;51.552;13.424;2023-10-31T03:09:00;11.43;;;8.85;;
39918;SDS011;25589;51.552;13.424;2023-10-31T03:11:26;13.75;;;9.43;;
39918;SDS011;25589;51.552;13.424;2023-10-31T03:13:52;11.50;;;8.68;;
39918;SDS011;25589;51.552;13.424;2023-10-31T03:16:18;10.05;;;8.15;;
39918;SDS011;25589;51.552;13.424;2023-10-31T03:18:45;9.50;;;6.97;;
39918;SDS011;25589;51.552;13.424;2023-10-31T03:21:11;9.13;;;7.50;;
39918;SDS011;25589;51.552;13.424;2023-10-31T03:23:36;9.75;;;7.70;;
39918;SDS011;25589;51.552;13.424;2023-10-31T03:26:02;11.45;;;7.93;;
39918;SDS011;25589;51.552;13.424;2023-10-31T03:28:28;9.50;;;7.30;;
39918;SDS011;25589;51.552;13.424;2023-10-31T03:30:54;9.77;;;7.55;;
39918;SDS011;25589;51.552;13.424;2023-10-31T03:33:19;9.10;;;7.53;;
39918;SDS011;25589;51.552;13.424;2023-10-31T03:35:45;7.80;;;6.97;;
39918;SDS011;25589;51.552;13.424;2023-10-31T03:38:12;9.27;;;6.70;;
39918;SDS011;25589;51.552;13.424;2023-10-31T03:40:38;8.00;;;6.43;;
39918;SDS011;25589;51.552;13.424;2023-10-31T03:43:04;7.82;;;6.80;;
39918;SDS011;25589;51.552;13.424;2023-10-31T03:45:29;11.27;;;6.85;;
39918;SDS011;25589;51.552;13.424;2023-10-31T03:47:55;8.68;;;7.07;;
39918;SDS011;25589;51.552;13.424;2023-10-31T03:50:21;7.80;;;5.93;;
39918;SDS011;25589;51.552;13.424;2023-10-31T03:52:46;7.60;;;6.07;;
39918;SDS011;25589;51.552;13.424;2023-10-31T03:55:12;7.00;;;6.28;;
39918;SDS011;25589;51.552;13.424;2023-10-31T03:57:37;6.75;;;5.18;;
39918;SDS011;25589;51.552;13.424;2023-10-31T04:00:03;6.07;;;4.57;;
39918;SDS011;25589;51.552;13.424;2023-10-31T04:02:39;7.85;;;5.07;;
39918;SDS011;25589;51.552;13.424;2023-10-31T04:05:05;5.28;;;4.68;;
39918;SDS011;25589;51.552;13.424;2023-10-31T04:07:33;5.28;;;4.15;;
39918;SDS011;25589;51.552;13.424;2023-10-31T04:09:58;4.22;;;3.67;;
39918;SDS011;25589;51.552;13.424;2023-10-31T04:12:24;4.05;;;3.45;;
39918;SDS011;25589;51.552;13.424;2023-10-31T04:14:49;3.78;;;3.30;;
39918;SDS011;25589;51.552;13.424;2023-10-31T04:17:15;3.70;;;3.05;;
39918;SDS011;25589;51.552;13.424;2023-10-31T04:19:41;3.40;;;3.00;;
39918;SDS011;25589;51.552;13.424;2023-10-31T04:22:06;3.50;;;3.03;;
39918;SDS011;25589;51.552;13.424;2023-10-31T04:24:32;3.30;;;3.00;;
39918;SDS011;25589;51.552;13.424;2023-10-31T04:26:57;5.25;;;2.80;;
39918;SDS011;25589;51.552;13.424;2023-10-31T04:29:23;4.20;;;3.00;;
39918;SDS011;25589;51.552;13.424;2023-10-31T04:31:48;3.08;;;2.85;;
39918;SDS011;25589;51.552;13.424;2023-10-31T04:34:14;2.80;;;2.45;;
39918;SDS011;25589;51.552;13.424;2023-10-31T04:36:39;3.10;;;2.78;;
39918;SDS011;25589;51.552;13.424;2023-10-31T04:39:05;3.00;;;2.70;;
39918;SDS011;25589;51.552;13.424;2023-10-31T04:41:31;4.20;;;3.22;;
39918;SDS011;25589;51.552;13.424;2023-10-31T04:43:56;3.13;;;2.90;;
39918;SDS011;25589;51.552;13.424;2023-10-31T04:46:22;3.55;;;3.15;;
39918;SDS011;25589;51.552;13.424;2023-10-31T04:48:49;3.78;;;3.15;;
39918;SDS011;25589;51.552;13.424;2023-10-31T04:51:15;3.95;;;3.55;;
39918;SDS011;25589;51.552;13.424;2023-10-31T04:53:41;8.15;;;4.00;;
39918;SDS011;25589;51.552;13.424;2023-10-31T04:56:11;5.20;;;3.53;;
39918;SDS011;25589;51.552;13.424;2023-10-31T04:58:38;7.07;;;3.92;;
39918;SDS011;25589;51.552;13.424;2023-10-31T05:01:07;4.55;;;4.13;;
39918;SDS011;25589;51.552;13.424;2023-10-31T05:03:33;6.47;;;4.50;;
39918;SDS011;25589;51.552;13.424;2023-10-31T05:05:59;5.55;;;4.65;;
39918;SDS011;25589;51.552;13.424;2023-10-31T05:08:25;5.47;;;4.50;;
39918;SDS011;25589;51.552;13.424;2023-10-31T05:10:50;6.75;;;4.72;;
39918;SDS011;25589;51.552;13.424;2023-10-31T05:13:16;7.93;;;4.32;;
39918;SDS011;25589;51.552;13.424;2023-10-31T05:15:41;5.15;;;4.65;;
39918;SDS011;25589;51.552;13.424;2023-10-31T05:18:07;5.47;;;3.78;;
39918;SDS011;25589;51.552;13.424;2023-10-31T05:20:32;4.53;;;3.58;;
39918;SDS011;25589;51.552;13.424;2023-10-31T05:22:58;3.92;;;3.53;;
39918;SDS011;25589;51.552;13.424;2023-10-31T05:25:24;4.15;;;3.67;;
39918;SDS011;25589;51.552;13.424;2023-10-31T05:27:50;3.80;;;3.35;;
39918;SDS011;25589;51.552;13.424;2023-10-31T05:30:17;4.45;;;3.92;;
39918;SDS011;25589;51.552;13.424;2023-10-31T05:32:43;5.03;;;3.78;;
39918;SDS011;25589;51.552;13.424;2023-10-31T05:35:09;5.20;;;3.47;;
39918;SDS011;25589;51.552;13.424;2023-10-31T05:37:35;3.75;;;3.45;;
39918;SDS011;25589;51.552;13.424;2023-10-31T05:40:01;5.25;;;3.75;;
39918;SDS011;25589;51.552;13.424;2023-10-31T05:42:27;4.18;;;3.40;;
39918;SDS011;25589;51.552;13.424;2023-10-31T05:44:53;3.67;;;3.38;;
39918;SDS011;25589;51.552;13.424;2023-10-31T05:47:19;4.10;;;3.45;;
39918;SDS011;25589;51.552;13.424;2023-10-31T05:49:45;5.13;;;3.22;;
39918;SDS011;25589;51.552;13.424;2023-10-31T05:52:11;5.57;;;3.08;;
39918;SDS011;25589;51.552;13.424;2023-10-31T05:54:37;4.60;;;2.75;;
39918;SDS011;25589;51.552;13.424;2023-10-31T05:57:03;5.13;;;2.90;;
39918;SDS011;25589;51.552;13.424;2023-10-31T05:59:28;3.42;;;2.33;;
39918;SDS011;25589;51.552;13.424;2023-10-31T06:01:54;3.20;;;2.60;;
39918;SDS011;25589;51.552;13.424;2023-10-31T06:04:19;3.00;;;2.30;;
39918;SDS011;25589;51.552;13.424;2023-10-31T06:06:45;4.32;;;2.25;;
39918;SDS011;25589;51.552;13.424;2023-10-31T06:09:10;2.38;;;2.10;;
39918;SDS011;25589;51.552;13.424;2023-10-31T06:11:36;3.03;;;2.22;;
39918;SDS011;25589;51.552;13.424;2023-10-31T06:14:04;2.10;;;1.90;;
39918;SDS011;25589;51.552;13.424;2023-10-31T06:16:30;3.78;;;1.95;;
39918;SDS011;25589;51.552;13.424;2023-10-31T06:18:55;3.60;;;1.80;;
39918;SDS011;25589;51.552;13.424;2023-10-31T06:21:21;1.60;;;1.50;;
39918;SDS011;25589;51.552;13.424;2023-10-31T06:23:46;2.97;;;1.70;;
39918;SDS011;25589;51.552;13.424;2023-10-31T06:26:12;5.07;;;1.40;;
39918;SDS011;25589;51.552;13.424;2023-10-31T06:28:38;2.47;;;1.65;;
39918;SDS011;25589;51.552;13.424;2023-10-31T06:31:05;2.58;;;1.52;;
39918;SDS011;25589;51.552;13.424;2023-10-31T06:33:30;1.52;;;1.40;;
39918;SDS011;25589;51.552;13.424;2023-10-31T06:35:56;1.50;;;1.40;;
39918;SDS011;25589;51.552;13.424;2023-10-31T06:38:21;2.05;;;1.35;;
39918;SDS011;25589;51.552;13.424;2023-10-31T06:40:47;1.77;;;1.38;;
39918;SDS011;25589;51.552;13.424;2023-10-31T06:43:13;1.45;;;1.17;;
39918;SDS011;25589;51.552;13.424;2023-10-31T06:45:38;2.42;;;1.25;;
39918;SDS011;25589;51.552;13.424;2023-10-31T06:48:04;1.90;;;1.27;;
39918;SDS011;25589;51.552;13.424;2023-10-31T06:50:32;2.05;;;1.13;;
39918;SDS011;25589;51.552;13.424;2023-10-31T06:52:58;1.30;;;1.20;;
39918;SDS011;25589;51.552;13.424;2023-10-31T06:55:23;2.85;;;1.30;;
39918;SDS011;25589;51.552;13.424;2023-10-31T06:57:49;2.47;;;1.20;;
39918;SDS011;25589;51.552;13.424;2023-10-31T07:00:14;1.33;;;1.23;;
39918;SDS011;25589;51.552;13.424;2023-10-31T07:02:40;1.52;;;1.42;;
39918;SDS011;25589;51.552;13.424;2023-10-31T07:05:06;1.10;;;0.95;;
39918;SDS011;25589;51.552;13.424;2023-10-31T07:07:32;1.10;;;1.00;;
39918;SDS011;25589;51.552;13.424;2023-10-31T07:09:58;0.90;;;0.90;;
39918;SDS011;25589;51.552;13.424;2023-10-31T07:12:24;1.48;;;1.10;;
39918;SDS011;25589;51.552;13.424;2023-10-31T07:14:50;1.15;;;1.02;;
39918;SDS011;25589;51.552;13.424;2023-10-31T07:17:15;1.75;;;0.82;;
39918;SDS011;25589;51.552;13.424;2023-10-31T07:19:41;1.08;;;0.98;;
39918;SDS011;25589;51.552;13.424;2023-10-31T07:22:06;1.38;;;0.80;;
39918;SDS011;25589;51.552;13.424;2023-10-31T07:24:32;1.40;;;0.90;;
39918;SDS011;25589;51.552;13.424;2023-10-31T07:26:57;2.17;;;0.90;;
39918;SDS011;25589;51.552;13.424;2023-10-31T07:29:23;2.45;;;0.90;;
39918;SDS011;25589;51.552;13.424;2023-10-31T07:31:48;0.93;;;0.93;;
39918;SDS011;25589;51.552;13.424;2023-10-31T07:34:14;0.93;;;0.90;;
39918;SDS011;25589;51.552;13.424;2023-10-31T07:36:40;3.22;;;0.98;;
39918;SDS011;25589;51.552;13.424;2023-10-31T07:39:06;2.80;;;0.85;;
39918;SDS011;25589;51.552;13.424;2023-10-31T07:41:32;2.22;;;0.98;;
39918;SDS011;25589;51.552;13.424;2023-10-31T07:43:58;0.90;;;0.90;;
39918;SDS011;25589;51.552;13.424;2023-10-31T07:46:23;0.90;;;0.90;;
39918;SDS011;25589;51.552;13.424;2023-10-31T07:48:49;0.70;;;0.70;;
39918;SDS011;25589;51.552;13.424;2023-10-31T07:51:15;2.22;;;1.05;;
39918;SDS011;25589;51.552;13.424;2023-10-31T07:53:41;1.13;;;0.75;;
39918;SDS011;25589;51.552;13.424;2023-10-31T07:56:14;1.60;;;1.10;;
39918;SDS011;25589;51.552;13.424;2023-10-31T07:58:41;1.15;;;0.80;;
39918;SDS011;25589;51.552;13.424;2023-10-31T08:01:06;0.88;;;0.88;;
39918;SDS011;25589;51.552;13.424;2023-10-31T08:03:35;0.90;;;0.90;;
39918;SDS011;25589;51.552;13.424;2023-10-31T08:06:04;2.20;;;0.90;;
39918;SDS011;25589;51.552;13.424;2023-10-31T08:08:31;0.80;;;0.80;;
39918;SDS011;25589;51.552;13.424;2023-10-31T08:10:56;0.63;;;0.63;;
39918;SDS011;25589;51.552;13.424;2023-10-31T08:13:25;0.88;;;0.88;;
39918;SDS011;25589;51.552;13.424;2023-10-31T08:15:50;1.77;;;0.75;;
39918;SDS011;25589;51.552;13.424;2023-10-31T08:18:16;1.35;;;0.93;;
39918;SDS011;25589;51.552;13.424;2023-10-31T08:20:41;0.80;;;0.80;;
39918;SDS011;25589;51.552;13.424;2023-10-31T08:23:08;0.75;;;0.75;;
39918;SDS011;25589;51.552;13.424;2023-10-31T08:25:34;1.25;;;1.00;;
39918;SDS011;25589;51.552;13.424;2023-10-31T08:27:59;1.20;;;0.80;;
39918;SDS011;25589;51.552;13.424;2023-10-31T08:30:25;2.20;;;0.88;;
39918;SDS011;25589;51.552;13.424;2023-10-31T08:32:51;1.20;;;1.00;;
39918;SDS011;25589;51.552;13.424;2023-10-31T08:35:16;4.45;;;1.20;;
39918;SDS011;25589;51.552;13.424;2023-10-31T08:37:42;1.20;;;0.90;;
39918;SDS011;25589;51.552;13.424;2023-10-31T08:40:07;2.35;;;0.90;;
39918;SDS011;25589;51.552;13.424;2023-10-31T08:42:33;5.85;;;1.08;;
39918;SDS011;25589;51.552;13.424;2023-10-31T08:44:59;2.10;;;0.98;;
39918;SDS011;25589;51.552;13.424;2023-10-31T08:47:24;0.70;;;0.70;;
39918;SDS011;25589;51.552;13.424;2023-10-31T08:49:50;0.68;;;0.68;;
39918;SDS011;25589;51.552;13.424;2023-10-31T08:52:16;0.75;;;0.70;;
39918;SDS011;25589;51.552;13.424;2023-10-31T08:54:42;1.55;;;0.70;;
39918;SDS011;25589;51.552;13.424;2023-10-31T08:57:08;1.77;;;0.68;;
39918;SDS011;25589;51.552;13.424;2023-10-31T08:59:34;0.60;;;0.60;;
39918;SDS011;25589;51.552;13.424;2023-10-31T09:02:01;1.20;;;0.70;;
39918;SDS011;25589;51.552;13.424;2023-10-31T09:04:26;3.05;;;0.90;;
39918;SDS011;25589;51.552;13.424;2023-10-31T09:06:52;0.63;;;0.63;;
39918;SDS011;25589;51.552;13.424;2023-10-31T09:09:17;0.80;;;0.80;;
39918;SDS011;25589;51.552;13.424;2023-10-31T09:11:43;0.90;;;0.60;;
39918;SDS011;25589;51.552;13.424;2023-10-31T09:14:09;1.55;;;0.80;;
39918;SDS011;25589;51.552;13.424;2023-10-31T09:16:34;1.38;;;0.68;;
39918;SDS011;25589;51.552;13.424;2023-10-31T09:19:00;1.45;;;1.00;;
39918;SDS011;25589;51.552;13.424;2023-10-31T09:21:26;0.85;;;0.65;;
39918;SDS011;25589;51.552;13.424;2023-10-31T09:23:51;1.38;;;0.60;;
39918;SDS011;25589;51.552;13.424;2023-10-31T09:26:17;2.17;;;0.77;;
39918;SDS011;25589;51.552;13.424;2023-10-31T09:28:43;1.35;;;0.52;;
39918;SDS011;25589;51.552;13.424;2023-10-31T09:31:15;1.27;;;0.70;;
39918;SDS011;25589;51.552;13.424;2023-10-31T09:33:44;1.05;;;0.65;;
39918;SDS011;25589;51.552;13.424;2023-10-31T09:36:13;1.65;;;0.70;;
39918;SDS011;25589;51.552;13.424;2023-10-31T09:38:39;1.17;;;0.70;;
39918;SDS011;25589;51.552;13.424;2023-10-31T09:41:05;0.75;;;0.70;;
39918;SDS011;25589;51.552;13.424;2023-10-31T09:43:31;0.40;;;0.40;;
39918;SDS011;25589;51.552;13.424;2023-10-31T09:45:57;2.38;;;0.68;;
39918;SDS011;25589;51.552;13.424;2023-10-31T09:48:23;1.10;;;0.70;;
39918;SDS011;25589;51.552;13.424;2023-10-31T09:50:49;4.13;;;0.88;;
39918;SDS011;25589;51.552;13.424;2023-10-31T09:53:15;0.60;;;0.60;;
39918;SDS011;25589;51.552;13.424;2023-10-31T09:55:44;1.48;;;0.60;;
39918;SDS011;25589;51.552;13.424;2023-10-31T09:58:11;1.55;;;0.50;;
39918;SDS011;25589;51.552;13.424;2023-10-31T10:00:37;1.60;;;1.08;;
39918;SDS011;25589;51.552;13.424;2023-10-31T10:03:05;2.40;;;1.63;;
39918;SDS011;25589;51.552;13.424;2023-10-31T10:05:34;1.45;;;0.73;;
39918;SDS011;25589;51.552;13.424;2023-10-31T10:08:00;6.07;;;4.00;;
39918;SDS011;25589;51.552;13.424;2023-10-31T10:10:26;3.33;;;1.77;;
39918;SDS011;25589;51.552;13.424;2023-10-31T10:12:52;16.13;;;7.93;;
39918;SDS011;25589;51.552;13.424;2023-10-31T10:15:17;27.35;;;10.55;;
39918;SDS011;25589;51.552;13.424;2023-10-31T10:17:50;22.95;;;7.95;;
39918;SDS011;25589;51.552;13.424;2023-10-31T10:22:43;83.25;;;28.17;;
39918;SDS011;25589;51.552;13.424;2023-10-31T10:25:09;11.38;;;5.57;;
39918;SDS011;25589;51.552;13.424;2023-10-31T10:27:39;7.43;;;4.60;;
39918;SDS011;25589;51.552;13.424;2023-10-31T10:30:07;4.53;;;2.15;;
39918;SDS011;25589;51.552;13.424;2023-10-31T10:32:33;2.78;;;1.52;;
39918;SDS011;25589;51.552;13.424;2023-10-31T10:34:59;14.02;;;6.05;;
39918;SDS011;25589;51.552;13.424;2023-10-31T10:37:26;8.35;;;3.92;;
39918;SDS011;25589;51.552;13.424;2023-10-31T10:39:52;1.92;;;1.00;;
39918;SDS011;25589;51.552;13.424;2023-10-31T10:42:44;2.42;;;1.45;;
39918;SDS011;25589;51.552;13.424;2023-10-31T10:45:10;0.85;;;0.82;;
39918;SDS011;25589;51.552;13.424;2023-10-31T10:47:38;4.15;;;3.22;;
39918;SDS011;25589;51.552;13.424;2023-10-31T10:50:04;0.50;;;0.50;;
39918;SDS011;25589;51.552;13.424;2023-10-31T10:55:13;2.55;;;0.40;;
39918;SDS011;25589;51.552;13.424;2023-10-31T10:57:52;0.38;;;0.30;;
39918;SDS011;25589;51.552;13.424;2023-10-31T11:00:19;0.35;;;0.30;;
39918;SDS011;25589;51.552;13.424;2023-10-31T11:02:49;1.30;;;0.40;;
39918;SDS011;25589;51.552;13.424;2023-10-31T11:05:17;0.80;;;0.47;;
39918;SDS011;25589;51.552;13.424;2023-10-31T11:07:43;0.40;;;0.40;;
39918;SDS011;25589;51.552;13.424;2023-10-31T11:10:10;0.98;;;0.60;;
39918;SDS011;25589;51.552;13.424;2023-10-31T11:12:36;3.08;;;0.47;;
39918;SDS011;25589;51.552;13.424;2023-10-31T11:15:06;3.38;;;0.65;;
39918;SDS011;25589;51.552;13.424;2023-10-31T11:17:34;0.40;;;0.40;;
39918;SDS011;25589;51.552;13.424;2023-10-31T11:20:03;0.40;;;0.30;;
39918;SDS011;25589;51.552;13.424;2023-10-31T11:22:42;0.38;;;0.30;;
39918;SDS011;25589;51.552;13.424;2023-10-31T11:25:11;0.45;;;0.32;;
39918;SDS011;25589;51.552;13.424;2023-10-31T11:27:45;2.10;;;0.85;;
39918;SDS011;25589;51.552;13.424;2023-10-31T11:30:34;2.78;;;1.08;;
39918;SDS011;25589;51.552;13.424;2023-10-31T11:32:59;0.98;;;0.50;;
39918;SDS011;25589;51.552;13.424;2023-10-31T11:35:26;0.52;;;0.30;;
39918;SDS011;25589;51.552;13.424;2023-10-31T11:38:04;1.90;;;0.50;;
39918;SDS011;25589;51.552;13.424;2023-10-31T11:40:35;1.30;;;0.30;;
39918;SDS011;25589;51.552;13.424;2023-10-31T11:43:02;0.70;;;0.70;;
39918;SDS011;25589;51.552;13.424;2023-10-31T11:45:34;0.20;;;0.20;;
39918;SDS011;25589;51.552;13.424;2023-10-31T11:48:07;0.28;;;0.28;;
39918;SDS011;25589;51.552;13.424;2023-10-31T11:50:35;0.80;;;0.30;;
39918;SDS011;25589;51.552;13.424;2023-10-31T11:53:08;1.05;;;0.30;;
39918;SDS011;25589;51.552;13.424;2023-10-31T11:55:42;2.72;;;0.50;;
39918;SDS011;25589;51.552;13.424;2023-10-31T11:58:18;0.30;;;0.30;;
39918;SDS011;25589;51.552;13.424;2023-10-31T12:00:45;0.40;;;0.40;;
39918;SDS011;25589;51.552;13.424;2023-10-31T12:03:14;0.50;;;0.47;;
39918;SDS011;25589;51.552;13.424;2023-10-31T12:05:50;3.45;;;0.50;;
39918;SDS011;25589;51.552;13.424;2023-10-31T12:08:30;0.28;;;0.28;;
39918;SDS011;25589;51.552;13.424;2023-10-31T12:11:10;1.25;;;0.30;;
39918;SDS011;25589;51.552;13.424;2023-10-31T12:13:51;1.80;;;0.55;;
39918;SDS011;25589;51.552;13.424;2023-10-31T12:16:25;0.32;;;0.30;;
39918;SDS011;25589;51.552;13.424;2023-10-31T12:19:03;0.50;;;0.50;;
39918;SDS011;25589;51.552;13.424;2023-10-31T12:21:33;0.65;;;0.65;;
39918;SDS011;25589;51.552;13.424;2023-10-31T12:24:05;0.22;;;0.22;;
39918;SDS011;25589;51.552;13.424;2023-10-31T12:26:32;1.92;;;0.55;;
39918;SDS011;25589;51.552;13.424;2023-10-31T12:29:12;1.65;;;0.38;;
39918;SDS011;25589;51.552;13.424;2023-10-31T12:31:43;1.35;;;0.40;;
39918;SDS011;25589;51.552;13.424;2023-10-31T12:34:18;0.30;;;0.22;;
39918;SDS011;25589;51.552;13.424;2023-10-31T12:36:45;0.40;;;0.40;;
39918;SDS011;25589;51.552;13.424;2023-10-31T12:39:12;2.17;;;0.50;;
39918;SDS011;25589;51.552;13.424;2023-10-31T12:41:38;0.73;;;0.30;;
39918;SDS011;25589;51.552;13.424;2023-10-31T12:44:05;1.63;;;0.50;;
39918;SDS011;25589;51.552;13.424;2023-10-31T12:46:35;6.50;;;4.07;;
39918;SDS011;25589;51.552;13.424;2023-10-31T12:49:03;3.00;;;2.13;;
39918;SDS011;25589;51.552;13.424;2023-10-31T12:51:29;0.75;;;0.57;;
39918;SDS011;25589;51.552;13.424;2023-10-31T12:53:54;3.08;;;0.63;;
39918;SDS011;25589;51.552;13.424;2023-10-31T12:56:39;3.38;;;0.50;;
39918;SDS011;25589;51.552;13.424;2023-10-31T12:59:09;12.48;;;6.53;;
39918;SDS011;25589;51.552;13.424;2023-10-31T13:01:41;48.30;;;22.58;;
39918;SDS011;25589;51.552;13.424;2023-10-31T13:04:09;19.20;;;10.13;;
39918;SDS011;25589;51.552;13.424;2023-10-31T13:06:35;51.47;;;26.65;;
39918;SDS011;25589;51.552;13.424;2023-10-31T13:09:01;20.45;;;13.32;;
39918;SDS011;25589;51.552;13.424;2023-10-31T13:11:31;12.43;;;9.30;;
39918;SDS011;25589;51.552;13.424;2023-10-31T13:13:57;4.60;;;3.28;;
39918;SDS011;25589;51.552;13.424;2023-10-31T13:16:23;34.45;;;21.13;;
39918;SDS011;25589;51.552;13.424;2023-10-31T13:18:52;12.85;;;7.25;;
39918;SDS011;25589;51.552;13.424;2023-10-31T13:21:19;59.30;;;27.23;;
39918;SDS011;25589;51.552;13.424;2023-10-31T13:23:44;48.25;;;24.88;;
39918;SDS011;25589;51.552;13.424;2023-10-31T13:26:12;35.38;;;17.30;;
39918;SDS011;25589;51.552;13.424;2023-10-31T13:28:38;34.92;;;22.60;;
39918;SDS011;25589;51.552;13.424;2023-10-31T13:31:04;8.93;;;6.82;;
39918;SDS011;25589;51.552;13.424;2023-10-31T13:33:30;2.88;;;2.47;;
39918;SDS011;25589;51.552;13.424;2023-10-31T13:35:56;29.65;;;19.25;;
39918;SDS011;25589;51.552;13.424;2023-10-31T13:38:22;1.02;;;0.85;;
39918;SDS011;25589;51.552;13.424;2023-10-31T13:40:47;16.17;;;9.23;;
39918;SDS011;25589;51.552;13.424;2023-10-31T13:43:13;21.13;;;11.52;;
39918;SDS011;25589;51.552;13.424;2023-10-31T13:45:38;10.43;;;7.78;;
39918;SDS011;25589;51.552;13.424;2023-10-31T13:48:04;4.70;;;3.33;;
39918;SDS011;25589;51.552;13.424;2023-10-31T13:50:30;1.70;;;1.60;;
39918;SDS011;25589;51.552;13.424;2023-10-31T13:52:55;1.85;;;0.88;;
39918;SDS011;25589;51.552;13.424;2023-10-31T13:55:21;0.98;;;0.57;;
39918;SDS011;25589;51.552;13.424;2023-10-31T13:57:48;1.20;;;0.80;;
39918;SDS011;25589;51.552;13.424;2023-10-31T14:00:14;3.22;;;1.08;;
39918;SDS011;25589;51.552;13.424;2023-10-31T14:02:40;0.95;;;0.90;;
39918;SDS011;25589;51.552;13.424;2023-10-31T14:05:06;0.75;;;0.68;;
39918;SDS011;25589;51.552;13.424;2023-10-31T14:07:33;1.33;;;1.00;;
39918;SDS011;25589;51.552;13.424;2023-10-31T14:10:00;2.00;;;1.90;;
39918;SDS011;25589;51.552;13.424;2023-10-31T14:12:26;4.03;;;1.00;;
39918;SDS011;25589;51.552;13.424;2023-10-31T14:14:53;1.02;;;0.90;;
39918;SDS011;25589;51.552;13.424;2023-10-31T14:17:19;2.00;;;1.90;;
39918;SDS011;25589;51.552;13.424;2023-10-31T14:19:44;0.95;;;0.88;;
39918;SDS011;25589;51.552;13.424;2023-10-31T14:22:11;1.15;;;0.82;;
39918;SDS011;25589;51.552;13.424;2023-10-31T14:24:37;3.13;;;0.80;;
39918;SDS011;25589;51.552;13.424;2023-10-31T14:27:03;2.80;;;0.75;;
39918;SDS011;25589;51.552;13.424;2023-10-31T14:29:28;2.17;;;0.68;;
39918;SDS011;25589;51.552;13.424;2023-10-31T14:31:54;3.35;;;0.63;;
39918;SDS011;25589;51.552;13.424;2023-10-31T14:34:20;2.42;;;0.80;;